Time;durP1;ratioP1;P1;durP2;ratioP2;P2;SDS_P1;SDS_P2;PMS_P1;PMS_P2;Temp;Humidity;BMP_temperature;BMP_pressure;BME280_temperature;BME280_humidity;BME280_pressure;Samples;Min_cycle;Max_cycle;Signal;HPM_P1;HPM_P2
2022/08/02 00:01:26;;;;;;;5.53;2.92;;;;;;;;;;4971638;28;20027;-77
2022/08/02 00:03:51;;;;;;;2.67;2.00;;;;;;;;;;4971728;28;20034;-79
2022/08/02 00:06:17;;;;;;;3.92;2.85;;;;;;;;;;4971559;28;20038;-78
2022/08/02 00:08:42;;;;;;;6.82;2.60;;;;;;;;;;4971544;28;20470;-78
2022/08/02 00:11:08;;;;;;;8.60;3.00;;;;;;;;;;4971467;28;20055;-77
2022/08/02 00:13:33;;;;;;;4.45;2.70;;;;;;;;;;4972910;28;20402;-77
2022/08/02 00:15:59;;;;;;;4.20;2.70;;;;;;;;;;4973844;28;20034;-78
2022/08/02 00:18:24;;;;;;;7.63;2.60;;;;;;;;;;4973608;28;20101;-78
2022/08/02 00:20:50;;;;;;;4.72;2.92;;;;;;;;;;4970996;28;20027;-78
2022/08/02 00:23:15;;;;;;;3.72;2.90;;;;;;;;;;4966181;28;20034;-77
2022/08/02 00:25:41;;;;;;;3.75;2.70;;;;;;;;;;4952825;29;20034;-78
2022/08/02 00:28:06;;;;;;;4.57;2.90;;;;;;;;;;4951802;28;20035;-78
2022/08/02 00:30:32;;;;;;;6.30;2.72;;;;;;;;;;4951644;28;20134;-77
2022/08/02 00:32:58;;;;;;;4.25;3.42;;;;;;;;;;4952892;29;20416;-76
2022/08/02 00:35:23;;;;;;;4.63;2.97;;;;;;;;;;4951440;28;20019;-76
2022/08/02 00:37:49;;;;;;;4.65;2.90;;;;;;;;;;4952549;28;20062;-76
2022/08/02 00:40:14;;;;;;;5.60;2.80;;;;;;;;;;4952693;28;20101;-76
2022/08/02 00:42:40;;;;;;;3.60;2.58;;;;;;;;;;4952370;28;20042;-76
2022/08/02 00:45:06;;;;;;;5.43;3.15;;;;;;;;;;4952561;29;20042;-77
2022/08/02 00:47:32;;;;;;;6.35;3.28;;;;;;;;;;4967295;28;20030;-77
2022/08/02 00:49:57;;;;;;;8.95;3.15;;;;;;;;;;4950963;28;20039;-77
2022/08/02 00:52:23;;;;;;;4.25;2.42;;;;;;;;;;4952672;28;20059;-77
2022/08/02 00:54:49;;;;;;;4.63;3.05;;;;;;;;;;4967768;28;20050;-77
2022/08/02 00:57:15;;;;;;;4.35;2.63;;;;;;;;;;4953301;28;20078;-77
2022/08/02 00:59:41;;;;;;;4.47;3.10;;;;;;;;;;4951682;28;20384;-75
2022/08/02 01:02:07;;;;;;;3.63;2.65;;;;;;;;;;4953274;28;20031;-75
2022/08/02 01:04:33;;;;;;;5.40;2.55;;;;;;;;;;4971017;28;20031;-76
2022/08/02 01:07:03;;;;;;;6.95;3.28;;;;;;;;;;4958232;29;20565;-76
2022/08/02 01:09:29;;;;;;;7.38;3.00;;;;;;;;;;4959344;28;20050;-75
2022/08/02 01:11:54;;;;;;;3.70;3.28;;;;;;;;;;4974651;28;20480;-76
2022/08/02 01:14:23;;;;;;;5.78;3.33;;;;;;;;;;4974125;28;20480;-75
2022/08/02 01:17:07;;;;;;;9.35;3.35;;;;;;;;;;4954579;28;20027;-75
2022/08/02 01:19:39;;;;;;;3.90;3.33;;;;;;;;;;4953018;28;20031;-76
2022/08/02 01:22:23;;;;;;;;;;;;;;;;;;4968370;28;20126;-76
2022/08/02 01:24:51;;;;;;;6.15;3.25;;;;;;;;;;4968791;28;19917;-75
2022/08/02 01:27:54;;;;;;;4.30;3.25;;;;;;;;;;4972440;28;20033;-75
2022/08/02 01:30:20;;;;;;;3.80;2.80;;;;;;;;;;4970205;28;20364;-75
2022/08/02 01:32:51;;;;;;;11.60;3.67;;;;;;;;;;4970149;28;20042;-76
2022/08/02 01:35:25;;;;;;;8.02;3.10;;;;;;;;;;4971494;28;20026;-77
2022/08/02 01:37:59;;;;;;;8.90;3.90;;;;;;;;;;4971322;28;20034;-75
2022/08/02 01:40:30;;;;;;;6.53;3.42;;;;;;;;;;4971272;28;20106;-76
2022/08/02 01:42:57;;;;;;;11.55;4.07;;;;;;;;;;4969283;28;20026;-77
2022/08/02 01:45:31;;;;;;;6.15;3.75;;;;;;;;;;4971318;28;20057;-77
2022/08/02 01:47:59;;;;;;;6.05;2.95;;;;;;;;;;4971109;28;20035;-77
2022/08/02 01:50:31;;;;;;;5.95;3.08;;;;;;;;;;4971138;28;20442;-77
2022/08/02 01:53:01;;;;;;;5.53;3.35;;;;;;;;;;4969763;28;20035;-77
2022/08/02 01:55:36;;;;;;;3.47;2.60;;;;;;;;;;4970990;28;20033;-75
2022/08/02 01:58:05;;;;;;;6.75;2.63;;;;;;;;;;4969381;28;20506;-77
2022/08/02 02:00:35;;;;;;;7.63;3.13;;;;;;;;;;4969284;28;20026;-77
2022/08/02 02:03:03;;;;;;;9.48;3.13;;;;;;;;;;4969590;28;20038;-75
2022/08/02 02:05:31;;;;;;;7.53;3.25;;;;;;;;;;4969520;28;20152;-78
2022/08/02 02:07:59;;;;;;;8.75;2.90;;;;;;;;;;4985545;28;20023;-75
2022/08/02 02:10:28;;;;;;;9.02;2.85;;;;;;;;;;4985586;28;20138;-76
2022/08/02 02:12:57;;;;;;;8.27;3.05;;;;;;;;;;4970528;28;20109;-76
2022/08/02 02:15:24;;;;;;;9.38;3.30;;;;;;;;;;4969672;28;20484;-76
2022/08/02 02:17:51;;;;;;;4.82;2.92;;;;;;;;;;4969272;28;20039;-76
2022/08/02 02:20:19;;;;;;;18.05;4.28;;;;;;;;;;4969448;28;20310;-75
2022/08/02 02:22:46;;;;;;;9.63;2.95;;;;;;;;;;4969048;28;20042;-74
2022/08/02 02:25:16;;;;;;;4.30;3.10;;;;;;;;;;4969508;28;20113;-77
2022/08/02 02:27:55;;;;;;;5.18;3.35;;;;;;;;;;4970584;28;20039;-77
2022/08/02 02:30:24;;;;;;;6.82;3.22;;;;;;;;;;4969652;28;20034;-77
2022/08/02 02:32:54;;;;;;;14.00;3.85;;;;;;;;;;4985552;28;20081;-75
2022/08/02 02:35:21;;;;;;;6.07;3.63;;;;;;;;;;4969915;28;20062;-75
2022/08/02 02:37:48;;;;;;;7.05;3.05;;;;;;;;;;4974624;28;20111;-75
2022/08/02 02:40:15;;;;;;;4.70;2.95;;;;;;;;;;4973173;28;20031;-77
2022/08/02 02:42:42;;;;;;;5.70;3.08;;;;;;;;;;4974123;28;20023;-76
2022/08/02 02:45:10;;;;;;;5.53;3.45;;;;;;;;;;4973621;28;20038;-76
2022/08/02 02:47:37;;;;;;;6.35;2.88;;;;;;;;;;4973079;28;20586;-76
2022/08/02 02:50:03;;;;;;;16.35;3.47;;;;;;;;;;4972800;28;20058;-75
2022/08/02 02:52:30;;;;;;;4.35;2.70;;;;;;;;;;4974023;28;20054;-75
2022/08/02 02:54:56;;;;;;;3.95;2.80;;;;;;;;;;4972314;28;20023;-76
2022/08/02 02:57:22;;;;;;;3.35;2.70;;;;;;;;;;4988990;28;20027;-77
2022/08/02 02:59:48;;;;;;;2.60;2.40;;;;;;;;;;4974131;28;20111;-76
2022/08/02 03:02:14;;;;;;;4.18;2.75;;;;;;;;;;4974123;28;20117;-77
2022/08/02 03:04:41;;;;;;;4.25;2.78;;;;;;;;;;4972527;28;20065;-77
2022/08/02 03:07:08;;;;;;;4.72;2.88;;;;;;;;;;4972138;28;20515;-76
2022/08/02 03:09:33;;;;;;;8.43;3.30;;;;;;;;;;4971941;28;20130;-75
2022/08/02 03:11:59;;;;;;;7.70;3.00;;;;;;;;;;4973319;28;20114;-75
2022/08/02 03:14:25;;;;;;;4.68;2.72;;;;;;;;;;4973569;28;20054;-76
2022/08/02 03:16:52;;;;;;;6.25;2.75;;;;;;;;;;4972083;28;20030;-75
2022/08/02 03:19:19;;;;;;;3.80;2.90;;;;;;;;;;4973455;28;20097;-75
2022/08/02 03:21:46;;;;;;;3.75;3.05;;;;;;;;;;4972490;28;20067;-76
2022/08/02 03:24:12;;;;;;;8.45;3.00;;;;;;;;;;4961737;28;20415;-76
2022/08/02 03:26:38;;;;;;;3.75;2.70;;;;;;;;;;4953156;28;20126;-75
2022/08/02 03:29:05;;;;;;;4.53;2.60;;;;;;;;;;4954380;28;20030;-75
2022/08/02 03:31:31;;;;;;;6.57;3.20;;;;;;;;;;4952892;28;20349;-75
2022/08/02 03:33:58;;;;;;;3.35;3.05;;;;;;;;;;4953773;28;20034;-76
2022/08/02 03:36:26;;;;;;;3.72;3.13;;;;;;;;;;4953973;28;20038;-76
2022/08/02 03:38:52;;;;;;;4.25;3.10;;;;;;;;;;4968510;28;20041;-77
2022/08/02 03:41:20;;;;;;;4.28;2.95;;;;;;;;;;4954110;28;20027;-77
2022/08/02 03:43:47;;;;;;;7.80;4.60;;;;;;;;;;4953565;28;20577;-77
2022/08/02 03:46:16;;;;;;;5.05;2.97;;;;;;;;;;4952593;28;20023;-77
2022/08/02 03:48:42;;;;;;;9.75;3.75;;;;;;;;;;4967501;28;20062;-77
2022/08/02 03:51:07;;;;;;;5.15;3.42;;;;;;;;;;4953285;28;20035;-77
2022/08/02 03:53:34;;;;;;;4.22;3.20;;;;;;;;;;4953997;28;20418;-77
2022/08/02 03:56:01;;;;;;;5.78;2.88;;;;;;;;;;4953167;28;20505;-77
2022/08/02 03:58:27;;;;;;;6.47;3.10;;;;;;;;;;4952062;28;20078;-77
2022/08/02 04:00:55;;;;;;;5.05;3.35;;;;;;;;;;4952183;28;20027;-77
2022/08/02 04:03:21;;;;;;;5.20;3.20;;;;;;;;;;4952136;28;20035;-77
2022/08/02 04:05:46;;;;;;;3.70;2.88;;;;;;;;;;4953537;29;20027;-76
2022/08/02 04:08:12;;;;;;;6.75;3.20;;;;;;;;;;4968678;28;20031;-77
2022/08/02 04:13:25;;;;;;;15.93;4.40;;;;;;;;;;4954376;29;20455;-77
2022/08/02 04:15:55;;;;;;;16.20;4.50;;;;;;;;;;4959512;28;20051;-76
2022/08/02 04:18:27;;;;;;;7.80;3.20;;;;;;;;;;4957336;28;20035;-77
2022/08/02 04:20:55;;;;;;;5.93;3.88;;;;;;;;;;4954160;28;20035;-76
2022/08/02 04:23:23;;;;;;;6.22;3.50;;;;;;;;;;4973654;28;20110;-76
2022/08/02 04:25:49;;;;;;;8.32;3.90;;;;;;;;;;4972479;28;20027;-76
2022/08/02 04:28:15;;;;;;;5.65;3.05;;;;;;;;;;4972496;28;20105;-76
2022/08/02 04:30:42;;;;;;;4.57;3.40;;;;;;;;;;4971302;28;20527;-77
2022/08/02 04:33:08;;;;;;;4.43;3.60;;;;;;;;;;4971075;28;20030;-77
2022/08/02 04:35:34;;;;;;;6.82;3.80;;;;;;;;;;4972934;28;20058;-76
2022/08/02 04:38:00;;;;;;;4.20;3.30;;;;;;;;;;4972544;28;20034;-77
2022/08/02 04:40:26;;;;;;;6.32;4.00;;;;;;;;;;4970858;28;20117;-76
2022/08/02 04:42:53;;;;;;;8.98;3.47;;;;;;;;;;4971824;28;20157;-76
2022/08/02 04:45:20;;;;;;;6.53;3.50;;;;;;;;;;4971667;28;20050;-76
2022/08/02 04:47:45;;;;;;;17.13;10.43;;;;;;;;;;4970714;28;20498;-77
2022/08/02 04:50:10;;;;;;;8.02;3.85;;;;;;;;;;4971891;28;20026;-77
2022/08/02 04:52:36;;;;;;;7.45;3.33;;;;;;;;;;4970908;28;20337;-77
2022/08/02 04:55:01;;;;;;;7.28;3.95;;;;;;;;;;4970401;28;20018;-76
2022/08/02 05:00:12;;;;;;;9.00;3.40;;;;;;;;;;4971550;28;20157;-77
2022/08/02 05:02:37;;;;;;;7.85;3.70;;;;;;;;;;4986580;28;20113;-77
2022/08/02 05:05:03;;;;;;;5.82;3.33;;;;;;;;;;4970114;28;20026;-77
2022/08/02 05:07:29;;;;;;;7.78;3.95;;;;;;;;;;4970460;28;20033;-77
2022/08/02 05:09:54;;;;;;;9.82;4.90;;;;;;;;;;4970596;28;20463;-76
2022/08/02 05:12:21;;;;;;;10.55;3.97;;;;;;;;;;4972194;28;20397;-76
2022/08/02 05:14:47;;;;;;;10.35;3.95;;;;;;;;;;4970800;28;20027;-77
2022/08/02 05:17:13;;;;;;;8.95;3.63;;;;;;;;;;4986651;28;20844;-76
2022/08/02 05:19:38;;;;;;;11.18;5.00;;;;;;;;;;4972246;28;20339;-76
2022/08/02 05:22:03;;;;;;;9.60;4.63;;;;;;;;;;4970130;28;20372;-76
2022/08/02 05:24:29;;;;;;;10.15;3.80;;;;;;;;;;4957281;28;20446;-76
2022/08/02 05:26:54;;;;;;;11.43;3.97;;;;;;;;;;4964098;28;20434;-76
2022/08/02 05:29:21;;;;;;;7.05;4.55;;;;;;;;;;4977833;28;20062;-76
2022/08/02 05:31:47;;;;;;;9.27;4.13;;;;;;;;;;4961014;28;20054;-76
2022/08/02 05:34:12;;;;;;;5.68;4.53;;;;;;;;;;4955243;28;20026;-77
2022/08/02 05:36:38;;;;;;;9.02;4.10;;;;;;;;;;4958585;28;20102;-74
2022/08/02 05:39:04;;;;;;;5.75;4.20;;;;;;;;;;4958451;28;20027;-76
2022/08/02 05:41:29;;;;;;;7.63;4.10;;;;;;;;;;4960486;28;20114;-76
2022/08/02 05:43:55;;;;;;;11.75;5.72;;;;;;;;;;4963467;28;20479;-76
2022/08/02 05:46:20;;;;;;;12.82;4.80;;;;;;;;;;4966720;28;20062;-76
2022/08/02 05:48:46;;;;;;;8.82;4.63;;;;;;;;;;4958213;28;20058;-75
2022/08/02 05:51:21;;;;;;;9.35;4.63;;;;;;;;;;4963911;28;20101;-75
2022/08/02 05:54:17;;;;;;;7.05;3.97;;;;;;;;;;4952585;28;20090;-75
2022/08/02 05:56:52;;;;;;;6.53;4.43;;;;;;;;;;4977471;28;20070;-75
2022/08/02 05:59:30;;;;;;;8.95;4.10;;;;;;;;;;4956879;28;20089;-75
2022/08/02 06:02:02;;;;;;;10.80;4.68;;;;;;;;;;4976867;28;20034;-76
2022/08/02 06:04:53;;;;;;;6.07;4.25;;;;;;;;;;4971923;28;20795;-76
2022/08/02 06:07:20;;;;;;;7.93;5.03;;;;;;;;;;4955375;28;20097;-75
2022/08/02 06:09:48;;;;;;;9.60;5.22;;;;;;;;;;4967414;28;20499;-75
2022/08/02 06:12:15;;;;;;;8.85;4.57;;;;;;;;;;4966092;28;20123;-76
2022/08/02 06:14:42;;;;;;;6.20;4.60;;;;;;;;;;4964422;28;20128;-76
2022/08/02 06:17:07;;;;;;;6.53;3.85;;;;;;;;;;4968205;28;20031;-75
2022/08/02 06:19:37;;;;;;;8.75;3.83;;;;;;;;;;4967323;28;20028;-73
2022/08/02 06:22:14;;;;;;;5.72;4.10;;;;;;;;;;4965924;28;20023;-75
2022/08/02 06:24:49;;;;;;;8.45;4.00;;;;;;;;;;4962188;28;20042;-74
2022/08/02 06:27:15;;;;;;;7.30;4.10;;;;;;;;;;4959486;28;20027;-72
2022/08/02 06:29:45;;;;;;;16.63;4.47;;;;;;;;;;4965448;28;20073;-76
2022/08/02 06:32:11;;;;;;;7.60;5.43;;;;;;;;;;4968863;28;20549;-73
2022/08/02 06:34:40;;;;;;;7.15;5.03;;;;;;;;;;4960610;28;20109;-75
2022/08/02 06:37:25;;;;;;;8.38;4.70;;;;;;;;;;4965261;28;20060;-78
2022/08/02 06:39:58;;;;;;;7.82;4.47;;;;;;;;;;4981408;28;20185;-72
2022/08/02 06:42:43;;;;;;;20.65;5.95;;;;;;;;;;4969844;28;20027;-75
2022/08/02 06:45:08;;;;;;;7.97;4.82;;;;;;;;;;4970407;28;20161;-74
2022/08/02 06:47:34;;;;;;;9.02;5.25;;;;;;;;;;4970161;28;20666;-74
2022/08/02 06:50:00;;;;;;;9.15;4.45;;;;;;;;;;4966101;28;20089;-75
2022/08/02 06:52:27;;;;;;;12.10;5.25;;;;;;;;;;4981039;28;20043;-75
2022/08/02 06:54:53;;;;;;;10.85;5.38;;;;;;;;;;4970692;28;20391;-76
2022/08/02 06:57:19;;;;;;;7.70;5.65;;;;;;;;;;4965413;28;20030;-76
2022/08/02 06:59:44;;;;;;;7.65;4.50;;;;;;;;;;4952865;28;20232;-77
2022/08/02 07:02:12;;;;;;;10.07;4.95;;;;;;;;;;4964948;28;20089;-75
2022/08/02 07:04:38;;;;;;;5.88;4.35;;;;;;;;;;4957946;28;20054;-74
2022/08/02 07:07:05;;;;;;;11.23;5.22;;;;;;;;;;4957426;28;20508;-74
2022/08/02 07:09:31;;;;;;;8.38;4.22;;;;;;;;;;4964377;28;20149;-78
2022/08/02 07:11:56;;;;;;;7.40;5.60;;;;;;;;;;4956338;28;20503;-74
2022/08/02 07:14:22;;;;;;;4.55;3.60;;;;;;;;;;4968082;28;20038;-75
2022/08/02 07:16:48;;;;;;;6.85;4.00;;;;;;;;;;4957237;28;20027;-74
2022/08/02 07:19:13;;;;;;;10.52;4.45;;;;;;;;;;4951178;28;20832;-74
2022/08/02 07:21:42;;;;;;;9.13;5.60;;;;;;;;;;4955574;28;20038;-75
2022/08/02 07:24:07;;;;;;;7.68;3.80;;;;;;;;;;4969602;28;20046;-76
2022/08/02 07:26:33;;;;;;;11.13;3.20;;;;;;;;;;4969021;28;20035;-77
2022/08/02 07:28:58;;;;;;;5.07;3.42;;;;;;;;;;4961179;28;20039;-77
2022/08/02 07:31:24;;;;;;;9.43;3.83;;;;;;;;;;4959495;28;20031;-77
2022/08/02 07:33:50;;;;;;;9.48;4.13;;;;;;;;;;4953703;28;20460;-77
2022/08/02 07:36:15;;;;;;;4.22;3.47;;;;;;;;;;4966489;28;20118;-76
2022/08/02 07:38:41;;;;;;;4.05;3.00;;;;;;;;;;4953537;28;20190;-75
2022/08/02 07:41:07;;;;;;;7.47;3.15;;;;;;;;;;4963111;28;20118;-76
2022/08/02 07:43:33;;;;;;;4.53;2.97;;;;;;;;;;4973991;28;21987;-75
2022/08/02 07:45:59;;;;;;;5.80;3.92;;;;;;;;;;4972078;28;20121;-75
2022/08/02 07:48:24;;;;;;;3.70;3.20;;;;;;;;;;4968213;28;20034;-74
2022/08/02 07:50:50;;;;;;;5.50;4.05;;;;;;;;;;4958468;28;20034;-77
2022/08/02 07:53:15;;;;;;;6.55;3.70;;;;;;;;;;4959312;28;20027;-76
2022/08/02 07:55:41;;;;;;;7.78;4.38;;;;;;;;;;4971489;28;20476;-74
2022/08/02 07:58:09;;;;;;;4.78;3.10;;;;;;;;;;4964358;28;20034;-75
2022/08/02 08:00:35;;;;;;;3.75;3.08;;;;;;;;;;4954224;28;20043;-78
2022/08/02 08:03:02;;;;;;;11.50;3.20;;;;;;;;;;4953215;28;20430;-76
2022/08/02 08:05:27;;;;;;;7.25;2.30;;;;;;;;;;4964534;28;20031;-75
2022/08/02 08:07:53;;;;;;;8.02;5.90;;;;;;;;;;4964732;28;20080;-76
2022/08/02 08:10:18;;;;;;;3.53;2.90;;;;;;;;;;4970937;28;20051;-77
2022/08/02 08:12:44;;;;;;;4.72;2.40;;;;;;;;;;4956313;28;20089;-76
2022/08/02 08:15:09;;;;;;;31.98;5.50;;;;;;;;;;4965683;28;20042;-74
2022/08/02 08:17:37;;;;;;;24.02;5.05;;;;;;;;;;4958479;28;20085;-77
2022/08/02 08:20:05;;;;;;;2.90;2.50;;;;;;;;;;4960580;28;20026;-77
2022/08/02 08:22:30;;;;;;;5.68;2.83;;;;;;;;;;4960105;28;20039;-75
2022/08/02 08:24:56;;;;;;;3.40;2.20;;;;;;;;;;4956481;28;20027;-76
2022/08/02 08:27:22;;;;;;;5.65;2.63;;;;;;;;;;4941687;28;20039;-75
2022/08/02 08:30:04;;;;;;;6.90;4.28;;;;;;;;;;4966560;28;20472;-77
2022/08/02 08:32:29;;;;;;;3.97;2.97;;;;;;;;;;4951891;28;20516;-77
2022/08/02 08:34:55;;;;;;;8.00;2.95;;;;;;;;;;4974732;28;20027;-76
2022/08/02 08:37:20;;;;;;;6.72;4.05;;;;;;;;;;4964014;28;20030;-73
2022/08/02 08:39:46;;;;;;;3.67;3.30;;;;;;;;;;4953505;28;20035;-77
2022/08/02 08:42:12;;;;;;;4.10;3.38;;;;;;;;;;4965984;28;20092;-78
2022/08/02 08:44:37;;;;;;;13.52;8.50;;;;;;;;;;4954286;28;20039;-74
2022/08/02 08:47:04;;;;;;;9.68;3.95;;;;;;;;;;4949092;28;20034;-74
2022/08/02 08:49:44;;;;;;;6.43;3.35;;;;;;;;;;4958278;28;20042;-76
2022/08/02 08:52:12;;;;;;;5.63;3.55;;;;;;;;;;4948868;28;20192;-76
2022/08/02 08:54:44;;;;;;;7.82;4.00;;;;;;;;;;4954630;28;21062;-77
2022/08/02 08:57:12;;;;;;;8.20;3.80;;;;;;;;;;4975779;28;20134;-76
2022/08/02 08:59:38;;;;;;;5.35;3.42;;;;;;;;;;4960349;28;20032;-78
2022/08/02 09:02:04;;;;;;;7.15;4.45;;;;;;;;;;4974237;28;20034;-77
2022/08/02 09:04:30;;;;;;;7.20;4.63;;;;;;;;;;4955489;28;20038;-78
2022/08/02 09:06:57;;;;;;;15.10;4.65;;;;;;;;;;4980523;28;20046;-77
2022/08/02 09:09:23;;;;;;;6.28;3.80;;;;;;;;;;4970663;28;20046;-74
2022/08/02 09:11:53;;;;;;;5.35;3.63;;;;;;;;;;4976730;28;20026;-76
2022/08/02 09:14:27;;;;;;;8.95;3.97;;;;;;;;;;4963746;28;20476;-77
2022/08/02 09:17:04;;;;;;;4.47;3.03;;;;;;;;;;4978306;28;20073;-76
2022/08/02 09:19:30;;;;;;;4.57;3.30;;;;;;;;;;4962429;28;20066;-77
2022/08/02 09:22:06;;;;;;;5.70;3.08;;;;;;;;;;4959369;28;20538;-78
2022/08/02 09:24:47;;;;;;;3.90;2.70;;;;;;;;;;4951863;28;20061;-77
2022/08/02 09:27:15;;;;;;;4.43;3.90;;;;;;;;;;4979034;28;20058;-77
2022/08/02 09:30:00;;;;;;;5.80;2.92;;;;;;;;;;4953107;28;20158;-75
2022/08/02 09:32:28;;;;;;;4.82;2.90;;;;;;;;;;4953502;28;20039;-75
2022/08/02 09:34:55;;;;;;;3.80;2.85;;;;;;;;;;4955113;28;20026;-76
2022/08/02 09:37:25;;;;;;;5.05;2.70;;;;;;;;;;4961422;28;20023;-76
2022/08/02 09:40:02;;;;;;;4.50;3.25;;;;;;;;;;4967355;28;20030;-77
2022/08/02 09:42:28;;;;;;;8.55;2.95;;;;;;;;;;4956389;28;20038;-78
2022/08/02 09:45:08;;;;;;;3.65;3.10;;;;;;;;;;4951441;28;20035;-77
2022/08/02 09:47:34;;;;;;;5.43;4.45;;;;;;;;;;4966791;28;20077;-77
2022/08/02 09:50:00;;;;;;;4.25;2.53;;;;;;;;;;4966254;28;20038;-78
2022/08/02 09:52:31;;;;;;;3.08;2.65;;;;;;;;;;4952442;28;20034;-77
2022/08/02 09:55:48;;;;;;;9.33;3.27;;;;;;;;;;4957357;28;20067;-76
2022/08/02 09:58:21;;;;;;;3.60;2.75;;;;;;;;;;4958471;28;20039;-76
2022/08/02 10:00:57;;;;;;;3.67;3.03;;;;;;;;;;4974300;28;20781;-76
2022/08/02 10:03:25;;;;;;;18.30;4.72;;;;;;;;;;4958304;28;20038;-76
2022/08/02 10:06:11;;;;;;;6.93;3.38;;;;;;;;;;4975055;28;20034;-76
2022/08/02 10:08:36;;;;;;;5.82;2.60;;;;;;;;;;4977088;28;20537;-76
2022/08/02 10:11:04;;;;;;;9.93;2.58;;;;;;;;;;4972515;28;20059;-75
2022/08/02 10:13:35;;;;;;;3.13;2.83;;;;;;;;;;4960213;28;20063;-74
2022/08/02 10:16:03;;;;;;;3.13;2.83;;;;;;;;;;4978841;28;20034;-77
2022/08/02 10:18:29;;;;;;;4.75;2.60;;;;;;;;;;4943774;28;20051;-76
2022/08/02 10:21:01;;;;;;;4.32;2.17;;;;;;;;;;4961089;28;20538;-75
2022/08/02 10:23:52;;;;;;;5.28;2.60;;;;;;;;;;4946568;28;20039;-77
2022/08/02 10:26:20;;;;;;;5.57;3.28;;;;;;;;;;4948561;28;20050;-76
2022/08/02 10:28:48;;;;;;;15.32;5.03;;;;;;;;;;4954088;28;20031;-76
2022/08/02 10:31:21;;;;;;;6.40;2.88;;;;;;;;;;4950539;28;20035;-77
2022/08/02 10:33:52;;;;;;;5.10;2.60;;;;;;;;;;4943007;28;20046;-76
2022/08/02 10:36:22;;;;;;;6.30;3.17;;;;;;;;;;4942667;28;21319;-76
2022/08/02 10:38:49;;;;;;;6.13;2.83;;;;;;;;;;4950578;28;20039;-74
2022/08/02 10:41:51;;;;;;;5.80;2.95;;;;;;;;;;4940118;28;20034;-77
2022/08/02 10:44:29;;;;;;;6.15;3.13;;;;;;;;;;4940823;28;20051;-75
2022/08/02 10:47:17;;;;;;;4.53;2.80;;;;;;;;;;4950157;28;20073;-75
2022/08/02 10:49:49;;;;;;;3.75;2.58;;;;;;;;;;4966923;28;20038;-78
2022/08/02 10:52:16;;;;;;;4.85;2.90;;;;;;;;;;4948090;28;20043;-75
2022/08/02 10:54:54;;;;;;;7.45;3.05;;;;;;;;;;4966703;28;20038;-74
2022/08/02 10:57:24;;;;;;;5.20;3.65;;;;;;;;;;4951323;28;20114;-76
2022/08/02 11:00:12;;;;;;;7.28;3.13;;;;;;;;;;4957104;28;20035;-76
2022/08/02 11:02:38;;;;;;;8.30;2.53;;;;;;;;;;4967777;28;20034;-75
2022/08/02 11:05:16;;;;;;;5.35;3.08;;;;;;;;;;4952739;28;20118;-74
2022/08/02 11:07:47;;;;;;;5.15;2.67;;;;;;;;;;4962602;28;20058;-77
2022/08/02 11:10:26;;;;;;;4.32;2.40;;;;;;;;;;4965295;28;20059;-74
2022/08/02 11:13:15;;;;;;;12.10;6.45;;;;;;;;;;4972930;28;20743;-74
2022/08/02 11:16:13;;;;;;;3.70;2.90;;;;;;;;;;4961788;28;20387;-75
2022/08/02 11:18:51;;;;;;;3.50;2.85;;;;;;;;;;4935375;28;20153;-75
2022/08/02 11:21:29;;;;;;;3.00;2.72;;;;;;;;;;4963600;28;20030;-75
2022/08/02 11:23:55;;;;;;;4.22;2.47;;;;;;;;;;4953352;28;20078;-72
2022/08/02 11:26:36;;;;;;;4.28;2.47;;;;;;;;;;4947852;28;20035;-78
2022/08/02 11:29:04;;;;;;;2.63;2.42;;;;;;;;;;4953867;28;20045;-74
2022/08/02 11:31:38;;;;;;;5.80;2.60;;;;;;;;;;4962177;28;20259;-73
2022/08/02 11:34:05;;;;;;;6.82;3.05;;;;;;;;;;4960599;28;20138;-77
2022/08/02 11:36:31;;;;;;;6.75;3.33;;;;;;;;;;4950594;28;20899;-76
2022/08/02 11:39:12;;;;;;;2.47;1.85;;;;;;;;;;4953836;28;20142;-77
2022/08/02 11:41:39;;;;;;;5.28;2.90;;;;;;;;;;4955792;28;20073;-77
2022/08/02 11:44:05;;;;;;;3.45;2.65;;;;;;;;;;4969417;28;20521;-76
2022/08/02 11:46:31;;;;;;;4.90;2.45;;;;;;;;;;4958991;28;20050;-76
2022/08/02 11:49:09;;;;;;;2.88;2.15;;;;;;;;;;4972721;28;20030;-74
2022/08/02 11:51:35;;;;;;;2.83;2.28;;;;;;;;;;4953626;28;20447;-78
2022/08/02 11:54:01;;;;;;;3.50;2.50;;;;;;;;;;4964581;28;20039;-76
2022/08/02 11:56:29;;;;;;;3.40;2.22;;;;;;;;;;4964484;28;20049;-74
2022/08/02 11:59:06;;;;;;;3.78;2.17;;;;;;;;;;4951001;28;20388;-76
2022/08/02 12:01:34;;;;;;;4.03;2.80;;;;;;;;;;4972029;28;20521;-75
2022/08/02 12:04:01;;;;;;;4.50;2.00;;;;;;;;;;4949957;28;20608;-75
2022/08/02 12:06:28;;;;;;;2.60;2.33;;;;;;;;;;4953177;28;20090;-75
2022/08/02 12:09:06;;;;;;;3.28;1.88;;;;;;;;;;4951265;28;20102;-74
2022/08/02 12:11:32;;;;;;;1.90;1.70;;;;;;;;;;4954360;28;20090;-73
2022/08/02 12:13:58;;;;;;;3.45;1.88;;;;;;;;;;4953059;28;20200;-74
2022/08/02 12:19:18;;;;;;;3.42;2.13;;;;;;;;;;4951441;28;20049;-77
2022/08/02 12:21:45;;;;;;;5.28;2.08;;;;;;;;;;4951694;28;20113;-77
2022/08/02 12:24:13;;;;;;;2.22;1.70;;;;;;;;;;4955312;28;20102;-79
2022/08/02 12:26:44;;;;;;;4.47;1.83;;;;;;;;;;4960592;28;20381;-75
2022/08/02 12:29:10;;;;;;;3.08;1.80;;;;;;;;;;4950811;28;20045;-75
2022/08/02 12:31:48;;;;;;;4.22;2.42;;;;;;;;;;4968337;28;20122;-76
2022/08/02 12:34:19;;;;;;;2.45;1.67;;;;;;;;;;4955924;28;20249;-73
2022/08/02 12:37:08;;;;;;;2.92;1.73;;;;;;;;;;4952009;28;20101;-73
2022/08/02 12:39:45;;;;;;;3.08;2.05;;;;;;;;;;4978892;28;20034;-74
2022/08/02 12:42:13;;;;;;;2.33;1.63;;;;;;;;;;4962614;28;20023;-74
2022/08/02 12:47:53;;;;;;;1.90;1.73;;;;;;;;;;4955685;28;20061;-76
2022/08/02 12:50:33;;;;;;;5.00;2.27;;;;;;;;;;4975410;28;20034;-75
2022/08/02 12:53:05;;;;;;;5.00;1.73;;;;;;;;;;4966270;28;20515;-77
2022/08/02 12:55:31;;;;;;;2.55;1.92;;;;;;;;;;4952231;28;20125;-73
2022/08/02 12:58:00;;;;;;;4.88;1.73;;;;;;;;;;4957324;28;20031;-73
2022/08/02 13:00:44;;;;;;;2.47;1.77;;;;;;;;;;4953554;28;20066;-76
2022/08/02 13:03:11;;;;;;;4.18;2.22;;;;;;;;;;4972522;28;20037;-74
2022/08/02 13:05:37;;;;;;;2.97;1.92;;;;;;;;;;4959844;28;20035;-76
2022/08/02 13:08:04;;;;;;;6.35;2.08;;;;;;;;;;4950846;28;20038;-77
2022/08/02 13:10:29;;;;;;;1.70;1.60;;;;;;;;;;4959217;28;20078;-76
2022/08/02 13:12:55;;;;;;;1.55;1.45;;;;;;;;;;4965768;28;20129;-76
2022/08/02 13:15:24;;;;;;;3.05;1.60;;;;;;;;;;4952671;28;20051;-76
2022/08/02 13:17:49;;;;;;;1.88;1.60;;;;;;;;;;4959616;28;20157;-75
2022/08/02 13:20:15;;;;;;;2.65;1.73;;;;;;;;;;4959472;28;20126;-77
2022/08/02 13:22:42;;;;;;;2.17;1.98;;;;;;;;;;4958081;28;20519;-77
2022/08/02 13:25:09;;;;;;;3.88;1.50;;;;;;;;;;4975767;28;20034;-75
2022/08/02 13:27:36;;;;;;;3.60;1.70;;;;;;;;;;4977313;28;20038;-75
2022/08/02 13:30:06;;;;;;;2.67;1.77;;;;;;;;;;4955803;28;20034;-74
2022/08/02 13:32:33;;;;;;;2.53;1.92;;;;;;;;;;4958606;28;20379;-74
2022/08/02 13:35:00;;;;;;;3.88;2.90;;;;;;;;;;4955772;28;20405;-75
2022/08/02 13:37:25;;;;;;;3.55;1.80;;;;;;;;;;4955218;28;20034;-75
2022/08/02 13:39:51;;;;;;;2.72;1.90;;;;;;;;;;4955091;28;20085;-76
2022/08/02 13:42:21;;;;;;;5.07;1.80;;;;;;;;;;4952897;28;20108;-78
2022/08/02 13:44:47;;;;;;;5.03;2.10;;;;;;;;;;4956923;28;20031;-76
2022/08/02 13:47:14;;;;;;;10.13;2.20;;;;;;;;;;4955904;28;20813;-75
2022/08/02 13:49:40;;;;;;;2.78;1.70;;;;;;;;;;4959812;28;20065;-75
2022/08/02 13:52:07;;;;;;;1.80;1.70;;;;;;;;;;4961957;28;20081;-74
2022/08/02 13:54:33;;;;;;;2.83;1.60;;;;;;;;;;4963785;28;20446;-78
2022/08/02 13:56:59;;;;;;;3.50;2.38;;;;;;;;;;4963917;28;20047;-79
2022/08/02 13:59:24;;;;;;;3.25;2.28;;;;;;;;;;4970765;28;20035;-82
2022/08/02 14:01:51;;;;;;;3.83;1.70;;;;;;;;;;4997879;28;20082;-82
2022/08/02 14:04:17;;;;;;;3.72;1.70;;;;;;;;;;4988480;28;20045;-77
2022/08/02 14:06:42;;;;;;;3.10;1.35;;;;;;;;;;4979303;28;20674;-75
2022/08/02 14:09:08;;;;;;;1.90;1.55;;;;;;;;;;4987272;28;20483;-78
2022/08/02 14:11:33;;;;;;;2.90;1.83;;;;;;;;;;4961647;28;20050;-77
2022/08/02 14:13:59;;;;;;;3.78;1.85;;;;;;;;;;4960179;28;20030;-80
2022/08/02 14:16:24;;;;;;;2.83;1.60;;;;;;;;;;4962539;28;20506;-76
2022/08/02 14:18:50;;;;;;;3.47;1.60;;;;;;;;;;4962544;28;20483;-78
2022/08/02 14:21:16;;;;;;;2.25;1.35;;;;;;;;;;4962602;28;20065;-77
2022/08/02 14:23:42;;;;;;;2.53;1.40;;;;;;;;;;4955952;28;20035;-76
2022/08/02 14:26:08;;;;;;;3.28;1.20;;;;;;;;;;4959050;28;20019;-76
2022/08/02 14:28:35;;;;;;;1.90;1.50;;;;;;;;;;4966678;28;20027;-75
2022/08/02 14:31:00;;;;;;;1.55;1.10;;;;;;;;;;4961311;28;20031;-77
2022/08/02 14:33:26;;;;;;;2.72;1.50;;;;;;;;;;4960581;28;20114;-79
2022/08/02 14:35:52;;;;;;;1.65;1.55;;;;;;;;;;4980550;28;20033;-76
2022/08/02 14:38:18;;;;;;;1.60;1.50;;;;;;;;;;4970141;28;20030;-76
2022/08/02 14:40:45;;;;;;;4.80;1.88;;;;;;;;;;4966826;28;20125;-77
2022/08/02 14:44:02;;;;;;;1.52;1.42;;;;;;;;;;4979482;28;20043;-77
2022/08/02 14:45:57;;;;;;;2.13;1.50;;;;;;;;;;4965752;28;20073;-79
2022/08/02 14:48:22;;;;;;;1.70;1.50;;;;;;;;;;4971070;28;20114;-76
2022/08/02 14:50:48;;;;;;;3.80;1.45;;;;;;;;;;4967719;28;20031;-79
2022/08/02 14:53:14;;;;;;;1.48;1.38;;;;;;;;;;4967158;28;20035;-78
2022/08/02 14:55:41;;;;;;;3.95;1.70;;;;;;;;;;4963094;28;20037;-75
2022/08/02 14:58:09;;;;;;;1.70;1.60;;;;;;;;;;4979504;28;20042;-73
2022/08/02 15:00:40;;;;;;;1.85;1.52;;;;;;;;;;4967212;28;20061;-76
2022/08/02 15:03:05;;;;;;;2.65;1.27;;;;;;;;;;4961013;28;20499;-77
2022/08/02 15:05:31;;;;;;;4.03;1.60;;;;;;;;;;4984911;28;20039;-77